KQEW

Sangju Rws

Sangju Rws, South Korea
METAR KQEW 110250Z AUTO 02001KT 3200 // OVC017 M01/M02 A3035 RMK A02 TSNO
Observed Flight Rules
Dec-11 @ 02:50 UTC (16 minutes ago) Instrument Flight Rules
Wind Visibility Clouds
20° at 1 knots 3,203 meters
  • Overcast at 1,700' AGL
Temperatures Readings
Current -1°C / 30°F
Dewpoint -2°C / 28°F
Humidity 93%
Altimeter 30.35" Hg
Pressure 1028 hPa
METAR KQEW 110250Z AUTO 02001KT 3200 // OVC017 M01/M02 A3035 RMK A02 TSNO
Observed Flight Rules
Dec-11 @ 02:50 UTC
(16 minutes ago)
IFR
Wind Visibility
20° at 1 knots 3,203 meters
Clouds
  • Overcast at 1,700' AGL
Temperature Dewpoint
-1°C / 30°F -2°C / 28°F
Humidity Altimeter Pressure
93% 30.35" Hg 1028 hPa